sensor_id;sensor_type;location;lat;lon;timestamp;P1;durP1;ratioP1;P2;durP2;ratioP2
36213;SDS011;37652;50.400;30.628;2023-04-03T00:01:04;13.98;;;10.27;;
36213;SDS011;37652;50.400;30.628;2023-04-03T00:03:05;16.67;;;10.05;;
36213;SDS011;37652;50.400;30.628;2023-04-03T00:05:06;16.45;;;10.60;;
36213;SDS011;37652;50.400;30.628;2023-04-03T00:07:07;16.23;;;10.15;;
36213;SDS011;37652;50.400;30.628;2023-04-03T00:09:08;16.83;;;12.32;;
36213;SDS011;37652;50.400;30.628;2023-04-03T00:11:09;21.30;;;11.63;;
36213;SDS011;37652;50.400;30.628;2023-04-03T00:13:10;17.85;;;12.02;;
36213;SDS011;37652;50.400;30.628;2023-04-03T00:15:11;16.58;;;12.90;;
36213;SDS011;37652;50.400;30.628;2023-04-03T00:17:12;16.75;;;11.60;;
36213;SDS011;37652;50.400;30.628;2023-04-03T00:19:12;17.58;;;12.20;;
36213;SDS011;37652;50.400;30.628;2023-04-03T00:21:13;17.80;;;11.25;;
36213;SDS011;37652;50.400;30.628;2023-04-03T00:23:15;18.83;;;10.52;;
36213;SDS011;37652;50.400;30.628;2023-04-03T00:25:16;19.58;;;12.00;;
36213;SDS011;37652;50.400;30.628;2023-04-03T00:27:17;23.27;;;12.68;;
36213;SDS011;37652;50.400;30.628;2023-04-03T00:29:17;18.65;;;11.88;;
36213;SDS011;37652;50.400;30.628;2023-04-03T00:31:18;18.48;;;11.60;;
36213;SDS011;37652;50.400;30.628;2023-04-03T00:33:19;22.35;;;11.80;;
36213;SDS011;37652;50.400;30.628;2023-04-03T00:35:24;17.90;;;11.45;;
36213;SDS011;37652;50.400;30.628;2023-04-03T00:37:25;15.10;;;11.55;;
36213;SDS011;37652;50.400;30.628;2023-04-03T00:39:26;17.83;;;11.60;;
36213;SDS011;37652;50.400;30.628;2023-04-03T00:41:27;19.10;;;11.90;;
36213;SDS011;37652;50.400;30.628;2023-04-03T00:43:28;19.75;;;12.35;;
36213;SDS011;37652;50.400;30.628;2023-04-03T00:45:39;16.38;;;11.63;;
36213;SDS011;37652;50.400;30.628;2023-04-03T00:47:41;18.38;;;11.88;;
36213;SDS011;37652;50.400;30.628;2023-04-03T00:49:42;22.45;;;11.52;;
36213;SDS011;37652;50.400;30.628;2023-04-03T00:51:44;19.23;;;12.13;;
36213;SDS011;37652;50.400;30.628;2023-04-03T00:53:47;16.98;;;11.80;;
36213;SDS011;37652;50.400;30.628;2023-04-03T00:55:59;17.70;;;12.27;;
36213;SDS011;37652;50.400;30.628;2023-04-03T00:58:00;19.40;;;13.02;;
36213;SDS011;37652;50.400;30.628;2023-04-03T01:02:09;17.40;;;11.45;;
36213;SDS011;37652;50.400;30.628;2023-04-03T01:06:30;17.52;;;12.32;;
36213;SDS011;37652;50.400;30.628;2023-04-03T01:08:35;19.15;;;11.43;;
36213;SDS011;37652;50.400;30.628;2023-04-03T01:10:35;17.98;;;11.18;;
36213;SDS011;37652;50.400;30.628;2023-04-03T01:12:37;16.77;;;11.38;;
36213;SDS011;37652;50.400;30.628;2023-04-03T01:14:39;15.93;;;11.48;;
36213;SDS011;37652;50.400;30.628;2023-04-03T01:16:40;19.98;;;11.93;;
36213;SDS011;37652;50.400;30.628;2023-04-03T01:18:41;19.25;;;11.13;;
36213;SDS011;37652;50.400;30.628;2023-04-03T01:20:48;18.05;;;10.98;;
36213;SDS011;37652;50.400;30.628;2023-04-03T01:25:13;15.65;;;10.82;;
36213;SDS011;37652;50.400;30.628;2023-04-03T01:27:13;15.95;;;11.00;;
36213;SDS011;37652;50.400;30.628;2023-04-03T01:29:14;14.75;;;11.25;;
36213;SDS011;37652;50.400;30.628;2023-04-03T01:33:31;17.73;;;10.98;;
36213;SDS011;37652;50.400;30.628;2023-04-03T01:35:32;14.48;;;10.48;;
36213;SDS011;37652;50.400;30.628;2023-04-03T01:37:33;19.98;;;12.10;;
36213;SDS011;37652;50.400;30.628;2023-04-03T01:39:34;16.35;;;10.93;;
36213;SDS011;37652;50.400;30.628;2023-04-03T01:41:35;19.92;;;11.95;;
36213;SDS011;37652;50.400;30.628;2023-04-03T01:43:36;16.95;;;11.98;;
36213;SDS011;37652;50.400;30.628;2023-04-03T01:45:37;19.80;;;11.80;;
36213;SDS011;37652;50.400;30.628;2023-04-03T01:47:37;13.32;;;9.68;;
36213;SDS011;37652;50.400;30.628;2023-04-03T01:49:38;13.75;;;10.70;;
36213;SDS011;37652;50.400;30.628;2023-04-03T01:51:39;16.25;;;11.98;;
36213;SDS011;37652;50.400;30.628;2023-04-03T01:53:40;13.63;;;10.02;;
36213;SDS011;37652;50.400;30.628;2023-04-03T01:55:41;14.15;;;10.23;;
36213;SDS011;37652;50.400;30.628;2023-04-03T01:57:42;15.73;;;10.85;;
36213;SDS011;37652;50.400;30.628;2023-04-03T01:59:43;16.58;;;10.95;;
36213;SDS011;37652;50.400;30.628;2023-04-03T02:01:44;15.70;;;10.45;;
36213;SDS011;37652;50.400;30.628;2023-04-03T02:03:45;14.80;;;10.48;;
36213;SDS011;37652;50.400;30.628;2023-04-03T02:05:46;21.10;;;9.98;;
36213;SDS011;37652;50.400;30.628;2023-04-03T02:07:47;16.17;;;10.75;;
36213;SDS011;37652;50.400;30.628;2023-04-03T02:09:49;15.90;;;9.95;;
36213;SDS011;37652;50.400;30.628;2023-04-03T02:11:49;15.57;;;10.57;;
36213;SDS011;37652;50.400;30.628;2023-04-03T02:13:50;15.38;;;11.15;;
36213;SDS011;37652;50.400;30.628;2023-04-03T02:15:51;13.50;;;9.40;;
36213;SDS011;37652;50.400;30.628;2023-04-03T02:17:51;16.63;;;10.85;;
36213;SDS011;37652;50.400;30.628;2023-04-03T02:19:52;14.43;;;9.93;;
36213;SDS011;37652;50.400;30.628;2023-04-03T02:21:53;16.88;;;10.02;;
36213;SDS011;37652;50.400;30.628;2023-04-03T02:23:54;15.90;;;10.10;;
36213;SDS011;37652;50.400;30.628;2023-04-03T02:26:02;16.33;;;10.98;;
36213;SDS011;37652;50.400;30.628;2023-04-03T02:28:08;17.73;;;10.20;;
36213;SDS011;37652;50.400;30.628;2023-04-03T02:30:09;16.77;;;10.10;;
36213;SDS011;37652;50.400;30.628;2023-04-03T02:34:11;18.23;;;11.07;;
36213;SDS011;37652;50.400;30.628;2023-04-03T02:36:12;17.02;;;10.38;;
36213;SDS011;37652;50.400;30.628;2023-04-03T02:38:12;17.05;;;10.52;;
36213;SDS011;37652;50.400;30.628;2023-04-03T02:40:13;17.92;;;12.07;;
36213;SDS011;37652;50.400;30.628;2023-04-03T02:42:14;16.95;;;10.10;;
36213;SDS011;37652;50.400;30.628;2023-04-03T02:44:15;16.13;;;11.30;;
36213;SDS011;37652;50.400;30.628;2023-04-03T02:46:16;13.88;;;9.88;;
36213;SDS011;37652;50.400;30.628;2023-04-03T02:48:16;13.32;;;9.82;;
36213;SDS011;37652;50.400;30.628;2023-04-03T02:50:17;21.30;;;11.77;;
36213;SDS011;37652;50.400;30.628;2023-04-03T02:52:18;14.45;;;10.80;;
36213;SDS011;37652;50.400;30.628;2023-04-03T02:54:19;17.42;;;11.00;;
36213;SDS011;37652;50.400;30.628;2023-04-03T02:56:20;15.30;;;10.60;;
36213;SDS011;37652;50.400;30.628;2023-04-03T02:58:21;18.42;;;11.10;;
36213;SDS011;37652;50.400;30.628;2023-04-03T03:00:21;17.05;;;9.70;;
36213;SDS011;37652;50.400;30.628;2023-04-03T03:02:22;14.60;;;10.45;;
36213;SDS011;37652;50.400;30.628;2023-04-03T03:04:23;15.73;;;10.43;;
36213;SDS011;37652;50.400;30.628;2023-04-03T03:06:23;16.90;;;11.02;;
36213;SDS011;37652;50.400;30.628;2023-04-03T03:08:24;16.60;;;10.77;;
36213;SDS011;37652;50.400;30.628;2023-04-03T03:10:25;15.77;;;10.63;;
36213;SDS011;37652;50.400;30.628;2023-04-03T03:12:26;19.20;;;11.75;;
36213;SDS011;37652;50.400;30.628;2023-04-03T03:14:26;19.25;;;11.77;;
36213;SDS011;37652;50.400;30.628;2023-04-03T03:16:27;15.95;;;10.82;;
36213;SDS011;37652;50.400;30.628;2023-04-03T03:18:28;18.48;;;11.80;;
36213;SDS011;37652;50.400;30.628;2023-04-03T03:20:29;17.05;;;11.80;;
36213;SDS011;37652;50.400;30.628;2023-04-03T03:22:30;18.00;;;11.45;;
36213;SDS011;37652;50.400;30.628;2023-04-03T03:24:31;14.55;;;10.73;;
36213;SDS011;37652;50.400;30.628;2023-04-03T03:26:31;14.77;;;9.85;;
36213;SDS011;37652;50.400;30.628;2023-04-03T03:28:32;19.30;;;11.70;;
36213;SDS011;37652;50.400;30.628;2023-04-03T03:30:34;15.65;;;10.45;;
36213;SDS011;37652;50.400;30.628;2023-04-03T03:32:35;18.63;;;10.75;;
36213;SDS011;37652;50.400;30.628;2023-04-03T03:34:36;22.60;;;11.18;;
36213;SDS011;37652;50.400;30.628;2023-04-03T03:36:36;16.05;;;10.95;;
36213;SDS011;37652;50.400;30.628;2023-04-03T03:38:37;18.70;;;11.85;;
36213;SDS011;37652;50.400;30.628;2023-04-03T03:40:38;18.63;;;11.57;;
36213;SDS011;37652;50.400;30.628;2023-04-03T03:42:39;21.05;;;13.02;;
36213;SDS011;37652;50.400;30.628;2023-04-03T03:44:40;16.65;;;12.07;;
36213;SDS011;37652;50.400;30.628;2023-04-03T03:46:41;17.48;;;12.05;;
36213;SDS011;37652;50.400;30.628;2023-04-03T03:48:42;18.60;;;12.48;;
36213;SDS011;37652;50.400;30.628;2023-04-03T03:50:42;15.32;;;11.65;;
36213;SDS011;37652;50.400;30.628;2023-04-03T03:52:43;16.40;;;11.88;;
36213;SDS011;37652;50.400;30.628;2023-04-03T03:54:44;17.80;;;12.35;;
36213;SDS011;37652;50.400;30.628;2023-04-03T03:56:45;18.05;;;12.18;;
36213;SDS011;37652;50.400;30.628;2023-04-03T03:58:46;19.70;;;11.23;;
36213;SDS011;37652;50.400;30.628;2023-04-03T04:00:47;16.52;;;11.88;;
36213;SDS011;37652;50.400;30.628;2023-04-03T04:02:48;17.40;;;12.85;;
36213;SDS011;37652;50.400;30.628;2023-04-03T04:04:49;20.55;;;13.05;;
36213;SDS011;37652;50.400;30.628;2023-04-03T04:06:50;17.33;;;12.05;;
36213;SDS011;37652;50.400;30.628;2023-04-03T04:08:51;17.23;;;11.60;;
36213;SDS011;37652;50.400;30.628;2023-04-03T04:10:52;19.67;;;13.02;;
36213;SDS011;37652;50.400;30.628;2023-04-03T04:12:53;18.30;;;11.90;;
36213;SDS011;37652;50.400;30.628;2023-04-03T04:14:54;18.23;;;12.63;;
36213;SDS011;37652;50.400;30.628;2023-04-03T04:16:55;17.35;;;12.40;;
36213;SDS011;37652;50.400;30.628;2023-04-03T04:18:56;16.92;;;12.13;;
36213;SDS011;37652;50.400;30.628;2023-04-03T04:20:56;22.30;;;13.48;;
36213;SDS011;37652;50.400;30.628;2023-04-03T04:22:57;20.17;;;12.90;;
36213;SDS011;37652;50.400;30.628;2023-04-03T04:24:58;17.38;;;11.98;;
36213;SDS011;37652;50.400;30.628;2023-04-03T04:26:59;21.88;;;13.13;;
36213;SDS011;37652;50.400;30.628;2023-04-03T04:29:00;21.45;;;13.57;;
36213;SDS011;37652;50.400;30.628;2023-04-03T04:31:01;19.88;;;12.35;;
36213;SDS011;37652;50.400;30.628;2023-04-03T04:33:02;20.30;;;13.88;;
36213;SDS011;37652;50.400;30.628;2023-04-03T04:35:03;19.77;;;12.65;;
36213;SDS011;37652;50.400;30.628;2023-04-03T04:37:04;19.17;;;13.48;;
36213;SDS011;37652;50.400;30.628;2023-04-03T04:39:05;21.55;;;13.30;;
36213;SDS011;37652;50.400;30.628;2023-04-03T04:41:07;19.98;;;13.07;;
36213;SDS011;37652;50.400;30.628;2023-04-03T04:43:08;23.10;;;13.40;;
36213;SDS011;37652;50.400;30.628;2023-04-03T04:45:10;20.77;;;12.77;;
36213;SDS011;37652;50.400;30.628;2023-04-03T04:47:11;22.70;;;13.52;;
36213;SDS011;37652;50.400;30.628;2023-04-03T04:49:12;18.67;;;11.80;;
36213;SDS011;37652;50.400;30.628;2023-04-03T04:51:13;17.73;;;12.18;;
36213;SDS011;37652;50.400;30.628;2023-04-03T04:53:15;18.73;;;12.98;;
36213;SDS011;37652;50.400;30.628;2023-04-03T04:55:15;18.63;;;13.00;;
36213;SDS011;37652;50.400;30.628;2023-04-03T04:57:16;15.68;;;11.88;;
36213;SDS011;37652;50.400;30.628;2023-04-03T04:59:17;19.23;;;12.98;;
36213;SDS011;37652;50.400;30.628;2023-04-03T05:01:17;18.13;;;11.80;;
36213;SDS011;37652;50.400;30.628;2023-04-03T05:03:18;18.75;;;13.60;;
36213;SDS011;37652;50.400;30.628;2023-04-03T05:05:19;21.25;;;13.93;;
36213;SDS011;37652;50.400;30.628;2023-04-03T05:07:20;20.08;;;13.35;;
36213;SDS011;37652;50.400;30.628;2023-04-03T05:09:21;18.25;;;12.75;;
36213;SDS011;37652;50.400;30.628;2023-04-03T05:11:22;19.08;;;12.55;;
36213;SDS011;37652;50.400;30.628;2023-04-03T05:13:23;18.58;;;11.63;;
36213;SDS011;37652;50.400;30.628;2023-04-03T05:15:24;18.85;;;13.27;;
36213;SDS011;37652;50.400;30.628;2023-04-03T05:17:25;17.73;;;12.05;;
36213;SDS011;37652;50.400;30.628;2023-04-03T05:19:25;16.23;;;11.95;;
36213;SDS011;37652;50.400;30.628;2023-04-03T05:21:26;16.08;;;11.63;;
36213;SDS011;37652;50.400;30.628;2023-04-03T05:23:31;13.55;;;11.02;;
36213;SDS011;37652;50.400;30.628;2023-04-03T05:25:32;17.38;;;12.50;;
36213;SDS011;37652;50.400;30.628;2023-04-03T05:27:33;16.50;;;12.05;;
36213;SDS011;37652;50.400;30.628;2023-04-03T05:29:34;15.38;;;11.98;;
36213;SDS011;37652;50.400;30.628;2023-04-03T05:31:35;15.90;;;11.75;;
36213;SDS011;37652;50.400;30.628;2023-04-03T05:33:36;15.63;;;11.48;;
36213;SDS011;37652;50.400;30.628;2023-04-03T05:35:37;17.85;;;11.90;;
36213;SDS011;37652;50.400;30.628;2023-04-03T05:37:41;18.35;;;11.48;;
36213;SDS011;37652;50.400;30.628;2023-04-03T05:39:42;14.27;;;10.68;;
36213;SDS011;37652;50.400;30.628;2023-04-03T05:41:42;16.90;;;11.40;;
36213;SDS011;37652;50.400;30.628;2023-04-03T05:43:43;16.55;;;11.57;;
36213;SDS011;37652;50.400;30.628;2023-04-03T05:45:45;18.05;;;12.02;;
36213;SDS011;37652;50.400;30.628;2023-04-03T05:47:47;23.05;;;13.73;;
36213;SDS011;37652;50.400;30.628;2023-04-03T05:49:49;17.63;;;11.38;;
36213;SDS011;37652;50.400;30.628;2023-04-03T05:51:49;19.40;;;12.23;;
36213;SDS011;37652;50.400;30.628;2023-04-03T05:53:56;19.00;;;11.70;;
36213;SDS011;37652;50.400;30.628;2023-04-03T05:56:03;17.95;;;11.52;;
36213;SDS011;37652;50.400;30.628;2023-04-03T05:58:04;15.88;;;11.15;;
36213;SDS011;37652;50.400;30.628;2023-04-03T06:00:06;15.02;;;11.15;;
36213;SDS011;37652;50.400;30.628;2023-04-03T06:02:13;19.23;;;11.38;;
36213;SDS011;37652;50.400;30.628;2023-04-03T06:04:18;15.13;;;9.93;;
36213;SDS011;37652;50.400;30.628;2023-04-03T06:06:21;14.50;;;11.02;;
36213;SDS011;37652;50.400;30.628;2023-04-03T06:08:22;16.38;;;11.65;;
36213;SDS011;37652;50.400;30.628;2023-04-03T06:10:23;15.95;;;10.77;;
36213;SDS011;37652;50.400;30.628;2023-04-03T06:12:24;18.63;;;10.90;;
36213;SDS011;37652;50.400;30.628;2023-04-03T06:14:25;18.50;;;10.85;;
36213;SDS011;37652;50.400;30.628;2023-04-03T06:16:26;15.48;;;10.70;;
36213;SDS011;37652;50.400;30.628;2023-04-03T06:18:27;15.13;;;11.40;;
36213;SDS011;37652;50.400;30.628;2023-04-03T06:20:28;15.90;;;11.30;;
36213;SDS011;37652;50.400;30.628;2023-04-03T06:22:29;13.27;;;11.10;;
36213;SDS011;37652;50.400;30.628;2023-04-03T06:24:30;16.13;;;10.98;;
36213;SDS011;37652;50.400;30.628;2023-04-03T06:26:31;15.25;;;10.75;;
36213;SDS011;37652;50.400;30.628;2023-04-03T06:28:33;16.42;;;11.55;;
36213;SDS011;37652;50.400;30.628;2023-04-03T06:30:34;16.90;;;11.30;;
36213;SDS011;37652;50.400;30.628;2023-04-03T06:32:35;15.68;;;11.25;;
36213;SDS011;37652;50.400;30.628;2023-04-03T06:34:35;14.52;;;10.50;;
36213;SDS011;37652;50.400;30.628;2023-04-03T06:36:38;16.55;;;12.32;;
36213;SDS011;37652;50.400;30.628;2023-04-03T06:38:39;15.85;;;12.20;;
36213;SDS011;37652;50.400;30.628;2023-04-03T06:40:40;17.70;;;13.10;;
36213;SDS011;37652;50.400;30.628;2023-04-03T06:42:41;16.50;;;11.43;;
36213;SDS011;37652;50.400;30.628;2023-04-03T06:44:41;18.52;;;12.15;;
36213;SDS011;37652;50.400;30.628;2023-04-03T06:46:43;16.20;;;12.63;;
36213;SDS011;37652;50.400;30.628;2023-04-03T06:48:45;18.27;;;12.25;;
36213;SDS011;37652;50.400;30.628;2023-04-03T06:50:46;14.35;;;11.18;;
36213;SDS011;37652;50.400;30.628;2023-04-03T06:52:47;16.95;;;11.85;;
36213;SDS011;37652;50.400;30.628;2023-04-03T06:54:48;18.38;;;12.02;;
36213;SDS011;37652;50.400;30.628;2023-04-03T06:56:49;15.45;;;11.48;;
36213;SDS011;37652;50.400;30.628;2023-04-03T06:58:51;14.10;;;10.52;;
36213;SDS011;37652;50.400;30.628;2023-04-03T07:00:54;12.75;;;10.45;;
36213;SDS011;37652;50.400;30.628;2023-04-03T07:06:58;13.17;;;10.33;;
36213;SDS011;37652;50.400;30.628;2023-04-03T07:08:59;17.27;;;10.13;;
36213;SDS011;37652;50.400;30.628;2023-04-03T07:11:00;14.32;;;10.77;;
36213;SDS011;37652;50.400;30.628;2023-04-03T07:13:01;13.95;;;10.43;;
36213;SDS011;37652;50.400;30.628;2023-04-03T07:15:02;14.77;;;10.80;;
36213;SDS011;37652;50.400;30.628;2023-04-03T07:17:03;17.17;;;12.05;;
36213;SDS011;37652;50.400;30.628;2023-04-03T07:19:04;13.73;;;9.80;;
36213;SDS011;37652;50.400;30.628;2023-04-03T07:21:05;16.50;;;11.40;;
36213;SDS011;37652;50.400;30.628;2023-04-03T07:23:06;15.35;;;10.15;;
36213;SDS011;37652;50.400;30.628;2023-04-03T07:25:06;16.67;;;11.95;;
36213;SDS011;37652;50.400;30.628;2023-04-03T07:27:07;15.48;;;11.50;;
36213;SDS011;37652;50.400;30.628;2023-04-03T07:29:08;13.32;;;10.70;;
36213;SDS011;37652;50.400;30.628;2023-04-03T07:31:12;13.52;;;11.07;;
36213;SDS011;37652;50.400;30.628;2023-04-03T07:33:17;15.25;;;11.10;;
36213;SDS011;37652;50.400;30.628;2023-04-03T07:35:19;11.98;;;10.25;;
36213;SDS011;37652;50.400;30.628;2023-04-03T07:37:19;15.15;;;10.70;;
36213;SDS011;37652;50.400;30.628;2023-04-03T07:39:20;14.63;;;11.48;;
36213;SDS011;37652;50.400;30.628;2023-04-03T07:41:21;12.30;;;10.77;;
36213;SDS011;37652;50.400;30.628;2023-04-03T07:43:23;15.13;;;11.45;;
36213;SDS011;37652;50.400;30.628;2023-04-03T07:45:25;13.82;;;11.05;;
36213;SDS011;37652;50.400;30.628;2023-04-03T07:47:25;15.93;;;10.30;;
36213;SDS011;37652;50.400;30.628;2023-04-03T07:49:26;20.40;;;13.32;;
36213;SDS011;37652;50.400;30.628;2023-04-03T07:51:27;13.07;;;9.90;;
36213;SDS011;37652;50.400;30.628;2023-04-03T07:53:29;13.82;;;10.02;;
36213;SDS011;37652;50.400;30.628;2023-04-03T07:55:31;12.50;;;10.57;;
36213;SDS011;37652;50.400;30.628;2023-04-03T07:57:32;14.57;;;10.07;;
36213;SDS011;37652;50.400;30.628;2023-04-03T07:59:33;16.30;;;10.55;;
36213;SDS011;37652;50.400;30.628;2023-04-03T08:01:34;11.82;;;10.30;;
36213;SDS011;37652;50.400;30.628;2023-04-03T08:03:34;11.65;;;9.57;;
36213;SDS011;37652;50.400;30.628;2023-04-03T08:05:39;12.25;;;10.82;;
36213;SDS011;37652;50.400;30.628;2023-04-03T08:07:41;12.35;;;9.85;;
36213;SDS011;37652;50.400;30.628;2023-04-03T08:09:42;13.57;;;10.00;;
36213;SDS011;37652;50.400;30.628;2023-04-03T08:11:44;11.50;;;9.73;;
36213;SDS011;37652;50.400;30.628;2023-04-03T08:13:45;11.15;;;9.23;;
36213;SDS011;37652;50.400;30.628;2023-04-03T08:15:46;12.88;;;9.77;;
36213;SDS011;37652;50.400;30.628;2023-04-03T08:17:48;13.63;;;9.38;;
36213;SDS011;37652;50.400;30.628;2023-04-03T08:21:49;13.13;;;8.47;;
36213;SDS011;37652;50.400;30.628;2023-04-03T08:23:51;11.65;;;8.48;;
36213;SDS011;37652;50.400;30.628;2023-04-03T08:25:51;15.48;;;9.60;;
36213;SDS011;37652;50.400;30.628;2023-04-03T08:27:53;13.18;;;9.20;;
36213;SDS011;37652;50.400;30.628;2023-04-03T08:29:54;12.95;;;10.45;;
36213;SDS011;37652;50.400;30.628;2023-04-03T08:31:55;16.30;;;12.75;;
36213;SDS011;37652;50.400;30.628;2023-04-03T08:35:57;16.97;;;12.40;;
36213;SDS011;37652;50.400;30.628;2023-04-03T08:37:58;19.30;;;12.18;;
36213;SDS011;37652;50.400;30.628;2023-04-03T08:39:59;16.38;;;12.00;;
36213;SDS011;37652;50.400;30.628;2023-04-03T08:42:00;16.42;;;11.45;;
36213;SDS011;37652;50.400;30.628;2023-04-03T08:49:25;12.32;;;10.70;;
36213;SDS011;37652;50.400;30.628;2023-04-03T08:51:29;14.05;;;11.60;;
36213;SDS011;37652;50.400;30.628;2023-04-03T08:53:35;15.52;;;12.32;;
36213;SDS011;37652;50.400;30.628;2023-04-03T08:55:42;14.27;;;10.48;;
36213;SDS011;37652;50.400;30.628;2023-04-03T08:57:45;14.90;;;10.95;;
36213;SDS011;37652;50.400;30.628;2023-04-03T08:59:49;18.15;;;12.68;;
36213;SDS011;37652;50.400;30.628;2023-04-03T09:01:50;18.40;;;12.73;;
36213;SDS011;37652;50.400;30.628;2023-04-03T09:03:51;15.30;;;13.25;;
36213;SDS011;37652;50.400;30.628;2023-04-03T09:05:58;19.55;;;14.05;;
36213;SDS011;37652;50.400;30.628;2023-04-03T09:08:27;15.73;;;14.07;;
36213;SDS011;37652;50.400;30.628;2023-04-03T09:10:49;16.17;;;13.30;;
36213;SDS011;37652;50.400;30.628;2023-04-03T09:15:48;19.25;;;14.75;;
36213;SDS011;37652;50.400;30.628;2023-04-03T09:22:23;15.43;;;13.32;;
36213;SDS011;37652;50.400;30.628;2023-04-03T09:24:25;15.00;;;12.55;;
36213;SDS011;37652;50.400;30.628;2023-04-03T09:26:30;16.83;;;13.07;;
36213;SDS011;37652;50.400;30.628;2023-04-03T09:28:57;15.60;;;12.20;;
36213;SDS011;37652;50.400;30.628;2023-04-03T09:31:01;16.23;;;13.63;;
36213;SDS011;37652;50.400;30.628;2023-04-03T09:33:12;18.70;;;13.60;;
36213;SDS011;37652;50.400;30.628;2023-04-03T09:37:33;18.40;;;13.10;;
36213;SDS011;37652;50.400;30.628;2023-04-03T09:39:59;12.15;;;10.20;;
36213;SDS011;37652;50.400;30.628;2023-04-03T09:42:34;13.70;;;11.13;;
36213;SDS011;37652;50.400;30.628;2023-04-03T09:44:34;13.23;;;11.82;;
36213;SDS011;37652;50.400;30.628;2023-04-03T09:46:37;15.65;;;11.93;;
36213;SDS011;37652;50.400;30.628;2023-04-03T09:48:39;14.05;;;11.50;;
36213;SDS011;37652;50.400;30.628;2023-04-03T09:50:58;14.30;;;12.55;;
36213;SDS011;37652;50.400;30.628;2023-04-03T09:53:05;13.98;;;12.07;;
36213;SDS011;37652;50.400;30.628;2023-04-03T09:55:25;14.85;;;10.98;;
36213;SDS011;37652;50.400;30.628;2023-04-03T09:57:32;12.45;;;10.43;;
36213;SDS011;37652;50.400;30.628;2023-04-03T09:59:33;16.35;;;11.15;;
36213;SDS011;37652;50.400;30.628;2023-04-03T10:01:35;11.18;;;10.02;;
36213;SDS011;37652;50.400;30.628;2023-04-03T10:03:38;12.15;;;9.10;;
36213;SDS011;37652;50.400;30.628;2023-04-03T10:05:41;10.90;;;8.30;;
36213;SDS011;37652;50.400;30.628;2023-04-03T10:07:42;9.90;;;8.73;;
36213;SDS011;37652;50.400;30.628;2023-04-03T10:09:44;9.52;;;8.60;;
36213;SDS011;37652;50.400;30.628;2023-04-03T10:12:11;10.40;;;8.40;;
36213;SDS011;37652;50.400;30.628;2023-04-03T10:14:16;14.23;;;9.32;;
36213;SDS011;37652;50.400;30.628;2023-04-03T10:16:21;11.57;;;9.40;;
36213;SDS011;37652;50.400;30.628;2023-04-03T10:20:49;11.80;;;8.98;;
36213;SDS011;37652;50.400;30.628;2023-04-03T10:25:15;12.43;;;7.45;;
36213;SDS011;37652;50.400;30.628;2023-04-03T10:27:18;11.90;;;8.35;;
36213;SDS011;37652;50.400;30.628;2023-04-03T10:34:08;7.97;;;7.15;;
36213;SDS011;37652;50.400;30.628;2023-04-03T10:36:25;7.43;;;5.78;;
36213;SDS011;37652;50.400;30.628;2023-04-03T10:52:42;12.23;;;7.35;;
36213;SDS011;37652;50.400;30.628;2023-04-03T10:57:06;9.73;;;6.88;;
36213;SDS011;37652;50.400;30.628;2023-04-03T11:01:21;11.10;;;8.15;;
36213;SDS011;37652;50.400;30.628;2023-04-03T11:03:42;9.30;;;7.88;;
36213;SDS011;37652;50.400;30.628;2023-04-03T11:05:47;8.52;;;7.45;;
36213;SDS011;37652;50.400;30.628;2023-04-03T11:07:53;11.50;;;7.35;;
36213;SDS011;37652;50.400;30.628;2023-04-03T11:09:58;11.73;;;7.20;;
36213;SDS011;37652;50.400;30.628;2023-04-03T11:12:46;9.23;;;7.75;;
36213;SDS011;37652;50.400;30.628;2023-04-03T11:14:31;9.55;;;7.43;;
36213;SDS011;37652;50.400;30.628;2023-04-03T11:16:36;9.38;;;7.60;;
36213;SDS011;37652;50.400;30.628;2023-04-03T11:18:44;10.10;;;8.13;;
36213;SDS011;37652;50.400;30.628;2023-04-03T11:21:12;10.05;;;7.95;;
36213;SDS011;37652;50.400;30.628;2023-04-03T11:23:24;13.20;;;8.65;;
36213;SDS011;37652;50.400;30.628;2023-04-03T11:25:29;11.48;;;8.35;;
36213;SDS011;37652;50.400;30.628;2023-04-03T11:27:40;9.15;;;8.05;;
36213;SDS011;37652;50.400;30.628;2023-04-03T11:29:49;9.40;;;7.60;;
36213;SDS011;37652;50.400;30.628;2023-04-03T11:36:49;10.18;;;8.35;;
36213;SDS011;37652;50.400;30.628;2023-04-03T11:38:57;9.43;;;8.43;;
36213;SDS011;37652;50.400;30.628;2023-04-03T11:41:30;9.55;;;7.68;;
36213;SDS011;37652;50.400;30.628;2023-04-03T11:43:32;12.80;;;8.40;;
36213;SDS011;37652;50.400;30.628;2023-04-03T11:45:35;8.73;;;7.22;;
36213;SDS011;37652;50.400;30.628;2023-04-03T11:50:03;12.38;;;8.15;;
36213;SDS011;37652;50.400;30.628;2023-04-03T11:52:55;7.32;;;6.38;;
36213;SDS011;37652;50.400;30.628;2023-04-03T11:56:45;10.52;;;8.13;;
36213;SDS011;37652;50.400;30.628;2023-04-03T11:59:28;9.20;;;8.30;;
36213;SDS011;37652;50.400;30.628;2023-04-03T12:01:10;10.77;;;7.55;;
36213;SDS011;37652;50.400;30.628;2023-04-03T12:05:28;7.25;;;5.72;;
36213;SDS011;37652;50.400;30.628;2023-04-03T12:07:29;7.28;;;6.45;;
36213;SDS011;37652;50.400;30.628;2023-04-03T12:11:40;5.68;;;5.18;;
36213;SDS011;37652;50.400;30.628;2023-04-03T12:15:57;7.15;;;5.28;;
36213;SDS011;37652;50.400;30.628;2023-04-03T12:18:05;6.15;;;5.55;;
36213;SDS011;37652;50.400;30.628;2023-04-03T12:27:51;5.57;;;5.07;;
36213;SDS011;37652;50.400;30.628;2023-04-03T12:37:03;7.70;;;6.13;;
36213;SDS011;37652;50.400;30.628;2023-04-03T12:47:42;10.38;;;6.85;;
36213;SDS011;37652;50.400;30.628;2023-04-03T12:49:44;7.95;;;7.15;;
36213;SDS011;37652;50.400;30.628;2023-04-03T12:51:45;7.88;;;6.43;;
36213;SDS011;37652;50.400;30.628;2023-04-03T12:53:47;7.53;;;6.72;;
36213;SDS011;37652;50.400;30.628;2023-04-03T12:55:56;9.48;;;6.80;;
36213;SDS011;37652;50.400;30.628;2023-04-03T12:58:24;10.07;;;7.60;;
36213;SDS011;37652;50.400;30.628;2023-04-03T13:00:28;8.52;;;6.80;;
36213;SDS011;37652;50.400;30.628;2023-04-03T13:02:34;10.75;;;6.90;;
36213;SDS011;37652;50.400;30.628;2023-04-03T13:04:37;7.90;;;7.07;;
36213;SDS011;37652;50.400;30.628;2023-04-03T13:06:40;10.13;;;7.97;;
36213;SDS011;37652;50.400;30.628;2023-04-03T13:11:21;9.18;;;7.75;;
36213;SDS011;37652;50.400;30.628;2023-04-03T13:13:24;8.93;;;7.43;;
36213;SDS011;37652;50.400;30.628;2023-04-03T13:17:28;7.95;;;6.85;;
36213;SDS011;37652;50.400;30.628;2023-04-03T13:19:29;8.18;;;7.13;;
36213;SDS011;37652;50.400;30.628;2023-04-03T13:21:31;8.35;;;7.50;;
36213;SDS011;37652;50.400;30.628;2023-04-03T13:23:36;10.60;;;7.82;;
36213;SDS011;37652;50.400;30.628;2023-04-03T13:25:41;10.10;;;7.40;;
36213;SDS011;37652;50.400;30.628;2023-04-03T13:27:45;8.60;;;7.32;;
36213;SDS011;37652;50.400;30.628;2023-04-03T13:29:49;8.60;;;7.20;;
36213;SDS011;37652;50.400;30.628;2023-04-03T13:31:53;8.77;;;7.38;;
36213;SDS011;37652;50.400;30.628;2023-04-03T13:35:59;8.10;;;6.40;;
36213;SDS011;37652;50.400;30.628;2023-04-03T13:42:29;10.43;;;6.97;;
36213;SDS011;37652;50.400;30.628;2023-04-03T13:44:33;7.45;;;6.18;;
36213;SDS011;37652;50.400;30.628;2023-04-03T13:46:35;10.68;;;6.55;;